sensor_id;sensor_type;location;lat;lon;timestamp;P1;durP1;ratioP1;P2;durP2;ratioP2
35909;SDS011;22004;49.120;-0.200;2022-09-16T00:00:49;5.38;;;1.88;;
35909;SDS011;22004;49.120;-0.200;2022-09-16T00:03:15;9.93;;;2.00;;
35909;SDS011;22004;49.120;-0.200;2022-09-16T00:05:42;7.10;;;2.03;;
35909;SDS011;22004;49.120;-0.200;2022-09-16T00:08:09;8.88;;;1.88;;
35909;SDS011;22004;49.120;-0.200;2022-09-16T00:10:35;8.52;;;1.80;;
35909;SDS011;22004;49.120;-0.200;2022-09-16T00:13:01;5.97;;;1.80;;
35909;SDS011;22004;49.120;-0.200;2022-09-16T00:15:27;3.25;;;2.03;;
35909;SDS011;22004;49.120;-0.200;2022-09-16T00:17:53;8.35;;;1.73;;
35909;SDS011;22004;49.120;-0.200;2022-09-16T00:20:18;5.38;;;1.55;;
35909;SDS011;22004;49.120;-0.200;2022-09-16T00:22:43;4.15;;;1.65;;
35909;SDS011;22004;49.120;-0.200;2022-09-16T00:25:09;7.97;;;1.75;;
35909;SDS011;22004;49.120;-0.200;2022-09-16T00:27:35;6.28;;;1.63;;
35909;SDS011;22004;49.120;-0.200;2022-09-16T00:30:00;10.35;;;1.90;;
35909;SDS011;22004;49.120;-0.200;2022-09-16T00:32:25;7.72;;;2.20;;
35909;SDS011;22004;49.120;-0.200;2022-09-16T00:34:51;4.75;;;1.70;;
35909;SDS011;22004;49.120;-0.200;2022-09-16T00:37:16;7.43;;;2.00;;
35909;SDS011;22004;49.120;-0.200;2022-09-16T00:39:42;4.18;;;1.63;;
35909;SDS011;22004;49.120;-0.200;2022-09-16T00:42:10;5.70;;;1.65;;
35909;SDS011;22004;49.120;-0.200;2022-09-16T00:47:23;4.93;;;2.00;;
35909;SDS011;22004;49.120;-0.200;2022-09-16T00:49:53;5.13;;;1.90;;
35909;SDS011;22004;49.120;-0.200;2022-09-16T00:52:23;5.70;;;1.77;;
35909;SDS011;22004;49.120;-0.200;2022-09-16T00:54:50;6.13;;;2.10;;
35909;SDS011;22004;49.120;-0.200;2022-09-16T00:57:16;5.68;;;2.22;;
35909;SDS011;22004;49.120;-0.200;2022-09-16T00:59:42;5.88;;;1.75;;
35909;SDS011;22004;49.120;-0.200;2022-09-16T01:02:12;8.45;;;2.50;;
35909;SDS011;22004;49.120;-0.200;2022-09-16T01:04:49;6.00;;;1.70;;
35909;SDS011;22004;49.120;-0.200;2022-09-16T01:07:23;7.50;;;1.67;;
35909;SDS011;22004;49.120;-0.200;2022-09-16T01:09:52;6.22;;;2.13;;
35909;SDS011;22004;49.120;-0.200;2022-09-16T01:12:19;4.70;;;1.60;;
35909;SDS011;22004;49.120;-0.200;2022-09-16T01:14:44;6.75;;;1.77;;
35909;SDS011;22004;49.120;-0.200;2022-09-16T01:26:20;7.20;;;1.73;;
35909;SDS011;22004;49.120;-0.200;2022-09-16T01:32:03;8.90;;;1.80;;
35909;SDS011;22004;49.120;-0.200;2022-09-16T01:48:12;5.90;;;1.83;;
35909;SDS011;22004;49.120;-0.200;2022-09-16T01:53:25;7.18;;;1.90;;
35909;SDS011;22004;49.120;-0.200;2022-09-16T01:55:58;6.78;;;1.83;;
35909;SDS011;22004;49.120;-0.200;2022-09-16T02:01:03;4.63;;;1.63;;
35909;SDS011;22004;49.120;-0.200;2022-09-16T02:03:35;5.93;;;1.90;;
35909;SDS011;22004;49.120;-0.200;2022-09-16T02:06:06;5.35;;;1.80;;
35909;SDS011;22004;49.120;-0.200;2022-09-16T02:11:14;5.25;;;1.80;;
35909;SDS011;22004;49.120;-0.200;2022-09-16T02:13:43;5.72;;;1.80;;
35909;SDS011;22004;49.120;-0.200;2022-09-16T02:19:05;5.80;;;1.70;;
35909;SDS011;22004;49.120;-0.200;2022-09-16T02:21:35;6.47;;;1.60;;
35909;SDS011;22004;49.120;-0.200;2022-09-16T02:24:04;7.72;;;2.15;;
35909;SDS011;22004;49.120;-0.200;2022-09-16T02:26:39;8.15;;;1.98;;
35909;SDS011;22004;49.120;-0.200;2022-09-16T02:29:09;6.00;;;1.67;;
35909;SDS011;22004;49.120;-0.200;2022-09-16T02:31:39;6.35;;;1.77;;
35909;SDS011;22004;49.120;-0.200;2022-09-16T02:34:10;6.25;;;2.13;;
35909;SDS011;22004;49.120;-0.200;2022-09-16T02:36:40;7.47;;;2.28;;
35909;SDS011;22004;49.120;-0.200;2022-09-16T02:39:10;5.68;;;2.03;;
35909;SDS011;22004;49.120;-0.200;2022-09-16T02:41:40;6.40;;;2.17;;
35909;SDS011;22004;49.120;-0.200;2022-09-16T02:44:07;6.00;;;1.92;;
35909;SDS011;22004;49.120;-0.200;2022-09-16T02:57:18;8.65;;;1.73;;
35909;SDS011;22004;49.120;-0.200;2022-09-16T02:59:44;6.10;;;1.75;;
35909;SDS011;22004;49.120;-0.200;2022-09-16T03:02:10;6.72;;;1.60;;
35909;SDS011;22004;49.120;-0.200;2022-09-16T03:04:36;7.43;;;2.00;;
35909;SDS011;22004;49.120;-0.200;2022-09-16T03:07:02;6.80;;;2.13;;
35909;SDS011;22004;49.120;-0.200;2022-09-16T03:09:33;5.68;;;1.83;;
35909;SDS011;22004;49.120;-0.200;2022-09-16T03:14:41;5.10;;;1.92;;
35909;SDS011;22004;49.120;-0.200;2022-09-16T03:20:02;6.68;;;2.17;;
35909;SDS011;22004;49.120;-0.200;2022-09-16T03:28:30;7.80;;;1.80;;
35909;SDS011;22004;49.120;-0.200;2022-09-16T03:31:02;5.15;;;1.80;;
35909;SDS011;22004;49.120;-0.200;2022-09-16T03:36:22;7.40;;;2.30;;
35909;SDS011;22004;49.120;-0.200;2022-09-16T03:38:52;7.35;;;1.85;;
35909;SDS011;22004;49.120;-0.200;2022-09-16T03:41:19;4.68;;;1.98;;
35909;SDS011;22004;49.120;-0.200;2022-09-16T03:43:55;5.88;;;2.40;;
35909;SDS011;22004;49.120;-0.200;2022-09-16T03:46:22;5.05;;;2.13;;
35909;SDS011;22004;49.120;-0.200;2022-09-16T03:48:49;7.68;;;2.10;;
35909;SDS011;22004;49.120;-0.200;2022-09-16T03:51:14;8.82;;;2.20;;
35909;SDS011;22004;49.120;-0.200;2022-09-16T03:53:40;6.68;;;1.73;;
35909;SDS011;22004;49.120;-0.200;2022-09-16T03:56:05;8.18;;;2.10;;
35909;SDS011;22004;49.120;-0.200;2022-09-16T03:58:31;8.57;;;2.17;;
35909;SDS011;22004;49.120;-0.200;2022-09-16T04:00:56;7.57;;;2.03;;
35909;SDS011;22004;49.120;-0.200;2022-09-16T04:03:22;5.63;;;2.10;;
35909;SDS011;22004;49.120;-0.200;2022-09-16T04:05:53;6.82;;;2.50;;
35909;SDS011;22004;49.120;-0.200;2022-09-16T04:08:20;6.13;;;1.88;;
35909;SDS011;22004;49.120;-0.200;2022-09-16T04:10:52;5.80;;;2.00;;
35909;SDS011;22004;49.120;-0.200;2022-09-16T04:13:21;6.55;;;2.10;;
35909;SDS011;22004;49.120;-0.200;2022-09-16T04:15:48;7.30;;;2.20;;
35909;SDS011;22004;49.120;-0.200;2022-09-16T04:18:13;5.40;;;1.77;;
35909;SDS011;22004;49.120;-0.200;2022-09-16T04:20:39;7.30;;;2.67;;
35909;SDS011;22004;49.120;-0.200;2022-09-16T04:23:04;5.25;;;2.40;;
35909;SDS011;22004;49.120;-0.200;2022-09-16T04:25:30;7.00;;;1.90;;
35909;SDS011;22004;49.120;-0.200;2022-09-16T04:27:55;6.35;;;2.05;;
35909;SDS011;22004;49.120;-0.200;2022-09-16T04:30:21;6.97;;;2.05;;
35909;SDS011;22004;49.120;-0.200;2022-09-16T04:32:47;8.98;;;2.67;;
35909;SDS011;22004;49.120;-0.200;2022-09-16T04:35:16;5.82;;;1.83;;
35909;SDS011;22004;49.120;-0.200;2022-09-16T04:37:43;8.02;;;2.40;;
35909;SDS011;22004;49.120;-0.200;2022-09-16T04:40:09;9.95;;;2.33;;
35909;SDS011;22004;49.120;-0.200;2022-09-16T04:42:34;7.78;;;2.28;;
35909;SDS011;22004;49.120;-0.200;2022-09-16T04:44:59;9.93;;;2.45;;
35909;SDS011;22004;49.120;-0.200;2022-09-16T04:47:25;9.93;;;2.33;;
35909;SDS011;22004;49.120;-0.200;2022-09-16T04:49:50;9.25;;;2.60;;
35909;SDS011;22004;49.120;-0.200;2022-09-16T04:52:15;9.88;;;2.45;;
35909;SDS011;22004;49.120;-0.200;2022-09-16T04:54:41;8.48;;;2.17;;
35909;SDS011;22004;49.120;-0.200;2022-09-16T04:57:06;6.47;;;2.17;;
35909;SDS011;22004;49.120;-0.200;2022-09-16T04:59:32;9.90;;;2.30;;
35909;SDS011;22004;49.120;-0.200;2022-09-16T05:01:57;7.97;;;2.38;;
35909;SDS011;22004;49.120;-0.200;2022-09-16T05:04:24;7.35;;;2.30;;
35909;SDS011;22004;49.120;-0.200;2022-09-16T05:06:49;7.63;;;2.72;;
35909;SDS011;22004;49.120;-0.200;2022-09-16T05:09:15;8.13;;;2.47;;
35909;SDS011;22004;49.120;-0.200;2022-09-16T05:11:40;6.07;;;2.20;;
35909;SDS011;22004;49.120;-0.200;2022-09-16T05:14:07;6.97;;;1.95;;
35909;SDS011;22004;49.120;-0.200;2022-09-16T05:16:37;7.63;;;2.15;;
35909;SDS011;22004;49.120;-0.200;2022-09-16T05:19:02;8.60;;;2.00;;
35909;SDS011;22004;49.120;-0.200;2022-09-16T05:21:29;11.52;;;1.85;;
35909;SDS011;22004;49.120;-0.200;2022-09-16T05:23:58;8.40;;;2.22;;
35909;SDS011;22004;49.120;-0.200;2022-09-16T05:26:25;9.35;;;2.13;;
35909;SDS011;22004;49.120;-0.200;2022-09-16T05:28:52;5.03;;;2.00;;
35909;SDS011;22004;49.120;-0.200;2022-09-16T05:31:19;10.63;;;2.03;;
35909;SDS011;22004;49.120;-0.200;2022-09-16T05:33:54;9.02;;;2.10;;
35909;SDS011;22004;49.120;-0.200;2022-09-16T05:36:24;8.50;;;2.15;;
35909;SDS011;22004;49.120;-0.200;2022-09-16T05:38:51;12.00;;;2.47;;
35909;SDS011;22004;49.120;-0.200;2022-09-16T05:41:16;6.38;;;1.70;;
35909;SDS011;22004;49.120;-0.200;2022-09-16T05:43:42;9.52;;;1.85;;
35909;SDS011;22004;49.120;-0.200;2022-09-16T05:46:09;6.60;;;1.95;;
35909;SDS011;22004;49.120;-0.200;2022-09-16T05:48:40;5.13;;;1.67;;
35909;SDS011;22004;49.120;-0.200;2022-09-16T05:51:05;6.10;;;1.85;;
35909;SDS011;22004;49.120;-0.200;2022-09-16T05:53:31;5.78;;;1.70;;
35909;SDS011;22004;49.120;-0.200;2022-09-16T05:58:25;8.57;;;2.20;;
35909;SDS011;22004;49.120;-0.200;2022-09-16T06:00:57;4.65;;;2.10;;
35909;SDS011;22004;49.120;-0.200;2022-09-16T06:03:23;20.70;;;2.40;;
35909;SDS011;22004;49.120;-0.200;2022-09-16T06:05:48;14.55;;;2.30;;
35909;SDS011;22004;49.120;-0.200;2022-09-16T06:08:14;13.10;;;2.20;;
35909;SDS011;22004;49.120;-0.200;2022-09-16T06:10:39;7.97;;;1.90;;
35909;SDS011;22004;49.120;-0.200;2022-09-16T06:13:06;11.68;;;1.70;;
35909;SDS011;22004;49.120;-0.200;2022-09-16T06:15:32;12.43;;;2.17;;
35909;SDS011;22004;49.120;-0.200;2022-09-16T06:17:58;10.45;;;1.90;;
35909;SDS011;22004;49.120;-0.200;2022-09-16T06:20:23;9.18;;;2.00;;
35909;SDS011;22004;49.120;-0.200;2022-09-16T06:22:49;9.40;;;1.58;;
35909;SDS011;22004;49.120;-0.200;2022-09-16T06:25:14;12.00;;;3.17;;
35909;SDS011;22004;49.120;-0.200;2022-09-16T06:27:40;7.72;;;1.75;;
35909;SDS011;22004;49.120;-0.200;2022-09-16T06:30:05;10.95;;;2.38;;
35909;SDS011;22004;49.120;-0.200;2022-09-16T06:32:31;7.15;;;1.83;;
35909;SDS011;22004;49.120;-0.200;2022-09-16T06:34:57;6.78;;;1.83;;
35909;SDS011;22004;49.120;-0.200;2022-09-16T06:37:22;5.75;;;1.80;;
35909;SDS011;22004;49.120;-0.200;2022-09-16T06:39:48;12.07;;;1.73;;
35909;SDS011;22004;49.120;-0.200;2022-09-16T06:42:13;9.63;;;2.10;;
35909;SDS011;22004;49.120;-0.200;2022-09-16T06:44:38;5.60;;;1.90;;
35909;SDS011;22004;49.120;-0.200;2022-09-16T06:47:04;5.40;;;1.58;;
35909;SDS011;22004;49.120;-0.200;2022-09-16T06:49:29;14.40;;;1.77;;
35909;SDS011;22004;49.120;-0.200;2022-09-16T06:51:55;5.47;;;1.70;;
35909;SDS011;22004;49.120;-0.200;2022-09-16T06:54:20;6.05;;;1.80;;
35909;SDS011;22004;49.120;-0.200;2022-09-16T06:56:46;8.43;;;1.60;;
35909;SDS011;22004;49.120;-0.200;2022-09-16T06:59:11;8.70;;;2.10;;
35909;SDS011;22004;49.120;-0.200;2022-09-16T07:01:38;2.90;;;1.13;;
35909;SDS011;22004;49.120;-0.200;2022-09-16T07:04:05;11.45;;;2.70;;
35909;SDS011;22004;49.120;-0.200;2022-09-16T07:06:34;4.88;;;1.63;;
35909;SDS011;22004;49.120;-0.200;2022-09-16T07:09:00;4.70;;;1.80;;
35909;SDS011;22004;49.120;-0.200;2022-09-16T07:11:25;15.07;;;1.80;;
35909;SDS011;22004;49.120;-0.200;2022-09-16T07:13:50;5.82;;;1.67;;
35909;SDS011;22004;49.120;-0.200;2022-09-16T07:16:21;7.00;;;1.60;;
35909;SDS011;22004;49.120;-0.200;2022-09-16T07:18:52;7.53;;;2.20;;
35909;SDS011;22004;49.120;-0.200;2022-09-16T07:21:18;3.28;;;1.60;;
35909;SDS011;22004;49.120;-0.200;2022-09-16T07:23:46;6.85;;;1.42;;
35909;SDS011;22004;49.120;-0.200;2022-09-16T07:26:16;7.68;;;1.88;;
35909;SDS011;22004;49.120;-0.200;2022-09-16T07:28:44;5.03;;;1.30;;
35909;SDS011;22004;49.120;-0.200;2022-09-16T07:31:13;6.03;;;1.65;;
35909;SDS011;22004;49.120;-0.200;2022-09-16T07:33:44;5.28;;;1.50;;
35909;SDS011;22004;49.120;-0.200;2022-09-16T07:36:12;5.13;;;1.45;;
35909;SDS011;22004;49.120;-0.200;2022-09-16T07:38:41;8.13;;;1.52;;
35909;SDS011;22004;49.120;-0.200;2022-09-16T07:41:07;9.48;;;1.60;;
35909;SDS011;22004;49.120;-0.200;2022-09-16T07:43:35;6.63;;;1.50;;
35909;SDS011;22004;49.120;-0.200;2022-09-16T07:46:01;7.57;;;1.40;;
35909;SDS011;22004;49.120;-0.200;2022-09-16T07:48:30;6.15;;;1.50;;
35909;SDS011;22004;49.120;-0.200;2022-09-16T07:51:00;6.05;;;1.60;;
35909;SDS011;22004;49.120;-0.200;2022-09-16T07:53:28;5.38;;;1.80;;
35909;SDS011;22004;49.120;-0.200;2022-09-16T07:55:54;8.80;;;2.80;;
35909;SDS011;22004;49.120;-0.200;2022-09-16T07:58:20;6.85;;;1.80;;
35909;SDS011;22004;49.120;-0.200;2022-09-16T08:00:49;8.35;;;1.75;;
35909;SDS011;22004;49.120;-0.200;2022-09-16T08:03:15;7.28;;;1.65;;
35909;SDS011;22004;49.120;-0.200;2022-09-16T08:05:41;8.23;;;1.80;;
35909;SDS011;22004;49.120;-0.200;2022-09-16T08:08:07;7.22;;;1.83;;
35909;SDS011;22004;49.120;-0.200;2022-09-16T08:10:32;10.90;;;1.50;;
35909;SDS011;22004;49.120;-0.200;2022-09-16T08:12:58;3.67;;;1.40;;
35909;SDS011;22004;49.120;-0.200;2022-09-16T08:15:23;6.68;;;0.90;;
35909;SDS011;22004;49.120;-0.200;2022-09-16T08:17:48;5.35;;;1.88;;
35909;SDS011;22004;49.120;-0.200;2022-09-16T08:20:14;7.05;;;1.85;;
35909;SDS011;22004;49.120;-0.200;2022-09-16T08:22:39;9.60;;;1.42;;
35909;SDS011;22004;49.120;-0.200;2022-09-16T08:25:05;5.90;;;1.55;;
35909;SDS011;22004;49.120;-0.200;2022-09-16T08:27:33;2.60;;;1.05;;
35909;SDS011;22004;49.120;-0.200;2022-09-16T08:29:59;10.00;;;1.70;;
35909;SDS011;22004;49.120;-0.200;2022-09-16T08:32:25;7.03;;;1.42;;
35909;SDS011;22004;49.120;-0.200;2022-09-16T08:34:50;5.18;;;1.42;;
35909;SDS011;22004;49.120;-0.200;2022-09-16T08:37:17;8.32;;;1.65;;
35909;SDS011;22004;49.120;-0.200;2022-09-16T08:39:42;5.05;;;1.30;;
35909;SDS011;22004;49.120;-0.200;2022-09-16T08:49:51;6.38;;;2.00;;
35909;SDS011;22004;49.120;-0.200;2022-09-16T08:52:28;6.35;;;1.55;;
35909;SDS011;22004;49.120;-0.200;2022-09-16T08:55:04;6.15;;;1.88;;
35909;SDS011;22004;49.120;-0.200;2022-09-16T08:57:37;6.25;;;1.50;;
35909;SDS011;22004;49.120;-0.200;2022-09-16T09:00:12;7.55;;;1.52;;
35909;SDS011;22004;49.120;-0.200;2022-09-16T09:02:46;3.35;;;1.27;;
35909;SDS011;22004;49.120;-0.200;2022-09-16T09:15:53;3.83;;;1.20;;
35909;SDS011;22004;49.120;-0.200;2022-09-16T09:24:14;8.80;;;1.50;;
35909;SDS011;22004;49.120;-0.200;2022-09-16T09:26:50;6.97;;;1.63;;
35909;SDS011;22004;49.120;-0.200;2022-09-16T09:40:48;5.35;;;1.35;;
35909;SDS011;22004;49.120;-0.200;2022-09-16T09:43:32;5.53;;;1.52;;
35909;SDS011;22004;49.120;-0.200;2022-09-16T09:48:43;3.78;;;1.20;;
35909;SDS011;22004;49.120;-0.200;2022-09-16T09:54:32;4.20;;;1.15;;
35909;SDS011;22004;49.120;-0.200;2022-09-16T10:02:15;2.47;;;1.00;;
35909;SDS011;22004;49.120;-0.200;2022-09-16T10:04:43;6.03;;;1.10;;
35909;SDS011;22004;49.120;-0.200;2022-09-16T10:07:10;6.50;;;1.10;;
35909;SDS011;22004;49.120;-0.200;2022-09-16T10:09:44;6.43;;;1.23;;
35909;SDS011;22004;49.120;-0.200;2022-09-16T10:12:13;4.93;;;1.20;;
35909;SDS011;22004;49.120;-0.200;2022-09-16T10:14:49;6.35;;;1.17;;
35909;SDS011;22004;49.120;-0.200;2022-09-16T10:17:15;5.10;;;1.20;;
35909;SDS011;22004;49.120;-0.200;2022-09-16T10:19:51;2.75;;;1.15;;
35909;SDS011;22004;49.120;-0.200;2022-09-16T10:22:27;6.43;;;1.35;;
35909;SDS011;22004;49.120;-0.200;2022-09-16T10:25:04;2.80;;;0.90;;
35909;SDS011;22004;49.120;-0.200;2022-09-16T10:27:33;2.75;;;0.90;;
35909;SDS011;22004;49.120;-0.200;2022-09-16T10:30:09;4.00;;;0.95;;
35909;SDS011;22004;49.120;-0.200;2022-09-16T10:32:44;6.38;;;0.98;;
35909;SDS011;22004;49.120;-0.200;2022-09-16T10:35:16;6.45;;;1.13;;
35909;SDS011;22004;49.120;-0.200;2022-09-16T10:37:49;2.50;;;1.15;;
35909;SDS011;22004;49.120;-0.200;2022-09-16T10:40:26;2.20;;;1.00;;
35909;SDS011;22004;49.120;-0.200;2022-09-16T10:42:52;5.10;;;0.90;;
35909;SDS011;22004;49.120;-0.200;2022-09-16T10:47:56;4.90;;;0.95;;
35909;SDS011;22004;49.120;-0.200;2022-09-16T10:50:24;7.90;;;1.00;;
35909;SDS011;22004;49.120;-0.200;2022-09-16T10:52:50;4.43;;;0.95;;
35909;SDS011;22004;49.120;-0.200;2022-09-16T10:55:21;4.68;;;0.90;;
35909;SDS011;22004;49.120;-0.200;2022-09-16T10:57:49;4.43;;;1.27;;
35909;SDS011;22004;49.120;-0.200;2022-09-16T11:00:19;4.38;;;1.13;;
35909;SDS011;22004;49.120;-0.200;2022-09-16T11:11:15;1.63;;;1.20;;
35909;SDS011;22004;49.120;-0.200;2022-09-16T11:17:07;1.50;;;1.00;;
35909;SDS011;22004;49.120;-0.200;2022-09-16T11:30:58;4.95;;;1.30;;
35909;SDS011;22004;49.120;-0.200;2022-09-16T11:41:46;4.10;;;1.30;;
35909;SDS011;22004;49.120;-0.200;2022-09-16T11:44:29;4.88;;;1.38;;
35909;SDS011;22004;49.120;-0.200;2022-09-16T11:50:00;2.33;;;1.08;;
35909;SDS011;22004;49.120;-0.200;2022-09-16T11:52:43;6.85;;;1.40;;
35909;SDS011;22004;49.120;-0.200;2022-09-16T11:58:19;2.33;;;1.17;;
35909;SDS011;22004;49.120;-0.200;2022-09-16T12:00:52;4.10;;;1.30;;
35909;SDS011;22004;49.120;-0.200;2022-09-16T12:06:05;3.63;;;1.38;;
35909;SDS011;22004;49.120;-0.200;2022-09-16T12:08:49;4.95;;;1.63;;
35909;SDS011;22004;49.120;-0.200;2022-09-16T12:11:44;4.25;;;1.05;;
35909;SDS011;22004;49.120;-0.200;2022-09-16T12:14:30;3.80;;;1.50;;
35909;SDS011;22004;49.120;-0.200;2022-09-16T12:17:04;3.40;;;1.27;;
35909;SDS011;22004;49.120;-0.200;2022-09-16T12:19:56;5.25;;;1.52;;
35909;SDS011;22004;49.120;-0.200;2022-09-16T12:22:26;3.20;;;1.00;;
35909;SDS011;22004;49.120;-0.200;2022-09-16T12:30:23;3.27;;;1.07;;
35909;SDS011;22004;49.120;-0.200;2022-09-16T12:33:01;5.72;;;1.25;;
35909;SDS011;22004;49.120;-0.200;2022-09-16T12:35:34;5.38;;;1.27;;
35909;SDS011;22004;49.120;-0.200;2022-09-16T12:38:03;3.47;;;0.90;;
35909;SDS011;22004;49.120;-0.200;2022-09-16T13:00:24;7.03;;;1.10;;
35909;SDS011;22004;49.120;-0.200;2022-09-16T13:02:58;3.50;;;1.13;;
35909;SDS011;22004;49.120;-0.200;2022-09-16T13:05:31;4.07;;;1.17;;
35909;SDS011;22004;49.120;-0.200;2022-09-16T13:08:02;3.53;;;1.02;;
35909;SDS011;22004;49.120;-0.200;2022-09-16T13:10:31;4.85;;;1.10;;
35909;SDS011;22004;49.120;-0.200;2022-09-16T13:13:02;3.35;;;1.00;;
35909;SDS011;22004;49.120;-0.200;2022-09-16T13:15:31;3.45;;;0.68;;
35909;SDS011;22004;49.120;-0.200;2022-09-16T13:20:53;1.55;;;0.70;;
35909;SDS011;22004;49.120;-0.200;2022-09-16T13:23:23;4.85;;;1.02;;
35909;SDS011;22004;49.120;-0.200;2022-09-16T13:25:58;4.75;;;0.95;;
35909;SDS011;22004;49.120;-0.200;2022-09-16T13:31:18;5.45;;;0.80;;
35909;SDS011;22004;49.120;-0.200;2022-09-16T13:38:49;8.15;;;0.90;;
35909;SDS011;22004;49.120;-0.200;2022-09-16T13:41:28;2.88;;;0.80;;
35909;SDS011;22004;49.120;-0.200;2022-09-16T13:49:58;2.47;;;0.60;;
35909;SDS011;22004;49.120;-0.200;2022-09-16T13:52:31;2.55;;;0.70;;
35909;SDS011;22004;49.120;-0.200;2022-09-16T13:54:58;2.08;;;0.70;;
35909;SDS011;22004;49.120;-0.200;2022-09-16T14:07:55;2.20;;;0.70;;
35909;SDS011;22004;49.120;-0.200;2022-09-16T14:13:19;2.00;;;0.80;;
35909;SDS011;22004;49.120;-0.200;2022-09-16T14:15:50;2.47;;;0.90;;
35909;SDS011;22004;49.120;-0.200;2022-09-16T14:18:22;4.45;;;0.70;;
35909;SDS011;22004;49.120;-0.200;2022-09-16T14:23:17;2.30;;;0.80;;
35909;SDS011;22004;49.120;-0.200;2022-09-16T14:25:43;4.18;;;0.80;;
35909;SDS011;22004;49.120;-0.200;2022-09-16T14:28:29;6.63;;;0.77;;
35909;SDS011;22004;49.120;-0.200;2022-09-16T14:36:08;3.42;;;0.82;;
35909;SDS011;22004;49.120;-0.200;2022-09-16T14:38:46;3.88;;;0.60;;
35909;SDS011;22004;49.120;-0.200;2022-09-16T14:41:20;7.65;;;1.20;;
35909;SDS011;22004;49.120;-0.200;2022-09-16T14:43:49;2.73;;;0.70;;
35909;SDS011;22004;49.120;-0.200;2022-09-16T14:46:17;6.07;;;0.90;;
35909;SDS011;22004;49.120;-0.200;2022-09-16T14:48:42;4.57;;;0.80;;
35909;SDS011;22004;49.120;-0.200;2022-09-16T14:51:16;7.18;;;0.77;;
35909;SDS011;22004;49.120;-0.200;2022-09-16T14:53:52;8.25;;;0.95;;
35909;SDS011;22004;49.120;-0.200;2022-09-16T14:56:22;3.70;;;0.80;;
35909;SDS011;22004;49.120;-0.200;2022-09-16T14:58:48;5.55;;;0.70;;
35909;SDS011;22004;49.120;-0.200;2022-09-16T15:01:18;3.28;;;0.73;;
35909;SDS011;22004;49.120;-0.200;2022-09-16T15:06:26;3.10;;;0.80;;
35909;SDS011;22004;49.120;-0.200;2022-09-16T15:09:02;4.00;;;0.80;;
35909;SDS011;22004;49.120;-0.200;2022-09-16T15:11:54;6.60;;;1.00;;
35909;SDS011;22004;49.120;-0.200;2022-09-16T15:14:21;4.95;;;0.80;;
35909;SDS011;22004;49.120;-0.200;2022-09-16T15:16:49;2.75;;;0.70;;
35909;SDS011;22004;49.120;-0.200;2022-09-16T15:19:24;2.38;;;0.75;;
35909;SDS011;22004;49.120;-0.200;2022-09-16T15:21:53;4.57;;;0.70;;
35909;SDS011;22004;49.120;-0.200;2022-09-16T15:24:21;1.95;;;0.80;;
35909;SDS011;22004;49.120;-0.200;2022-09-16T15:26:51;2.47;;;0.80;;
35909;SDS011;22004;49.120;-0.200;2022-09-16T15:31:44;2.30;;;0.90;;
35909;SDS011;22004;49.120;-0.200;2022-09-16T15:34:21;3.53;;;0.70;;
35909;SDS011;22004;49.120;-0.200;2022-09-16T15:36:49;4.30;;;0.90;;
35909;SDS011;22004;49.120;-0.200;2022-09-16T15:41:49;2.95;;;1.00;;
35909;SDS011;22004;49.120;-0.200;2022-09-16T15:44:27;2.60;;;0.60;;
35909;SDS011;22004;49.120;-0.200;2022-09-16T15:46:52;4.88;;;0.70;;
35909;SDS011;22004;49.120;-0.200;2022-09-16T15:49:18;3.53;;;1.25;;
35909;SDS011;22004;49.120;-0.200;2022-09-16T15:51:46;2.85;;;0.80;;
35909;SDS011;22004;49.120;-0.200;2022-09-16T15:54:21;5.18;;;0.88;;
35909;SDS011;22004;49.120;-0.200;2022-09-16T16:02:04;3.95;;;0.93;;
35909;SDS011;22004;49.120;-0.200;2022-09-16T16:04:44;7.32;;;0.90;;
35909;SDS011;22004;49.120;-0.200;2022-09-16T16:07:09;5.55;;;1.00;;
35909;SDS011;22004;49.120;-0.200;2022-09-16T16:09:41;3.33;;;1.00;;
35909;SDS011;22004;49.120;-0.200;2022-09-16T16:12:14;4.28;;;0.82;;
35909;SDS011;22004;49.120;-0.200;2022-09-16T16:14:41;3.20;;;0.70;;
35909;SDS011;22004;49.120;-0.200;2022-09-16T16:17:09;2.58;;;0.80;;
35909;SDS011;22004;49.120;-0.200;2022-09-16T16:19:43;4.18;;;0.85;;
35909;SDS011;22004;49.120;-0.200;2022-09-16T16:22:11;1.45;;;0.70;;
35909;SDS011;22004;49.120;-0.200;2022-09-16T16:24:37;2.80;;;0.75;;
35909;SDS011;22004;49.120;-0.200;2022-09-16T16:27:03;2.30;;;0.70;;
35909;SDS011;22004;49.120;-0.200;2022-09-16T16:29:29;2.33;;;1.25;;
35909;SDS011;22004;49.120;-0.200;2022-09-16T16:32:02;3.55;;;1.05;;
35909;SDS011;22004;49.120;-0.200;2022-09-16T16:34:36;3.38;;;1.02;;
35909;SDS011;22004;49.120;-0.200;2022-09-16T16:37:04;6.15;;;1.00;;
35909;SDS011;22004;49.120;-0.200;2022-09-16T16:39:31;2.88;;;0.80;;
35909;SDS011;22004;49.120;-0.200;2022-09-16T16:41:57;4.22;;;1.20;;
35909;SDS011;22004;49.120;-0.200;2022-09-16T16:44:22;1.30;;;0.70;;
35909;SDS011;22004;49.120;-0.200;2022-09-16T16:46:49;5.43;;;1.27;;
35909;SDS011;22004;49.120;-0.200;2022-09-16T16:49:15;2.45;;;0.77;;
35909;SDS011;22004;49.120;-0.200;2022-09-16T16:51:40;6.13;;;1.42;;
35909;SDS011;22004;49.120;-0.200;2022-09-16T16:54:06;3.55;;;0.85;;
35909;SDS011;22004;49.120;-0.200;2022-09-16T16:56:31;2.10;;;0.70;;
35909;SDS011;22004;49.120;-0.200;2022-09-16T16:58:57;2.63;;;0.80;;
35909;SDS011;22004;49.120;-0.200;2022-09-16T17:01:22;6.00;;;0.90;;
35909;SDS011;22004;49.120;-0.200;2022-09-16T17:03:48;3.42;;;0.88;;
35909;SDS011;22004;49.120;-0.200;2022-09-16T17:06:14;7.40;;;0.88;;
35909;SDS011;22004;49.120;-0.200;2022-09-16T17:08:41;4.30;;;1.00;;
35909;SDS011;22004;49.120;-0.200;2022-09-16T17:11:17;3.33;;;0.90;;
35909;SDS011;22004;49.120;-0.200;2022-09-16T17:13:48;4.90;;;1.10;;
35909;SDS011;22004;49.120;-0.200;2022-09-16T17:16:18;3.40;;;0.90;;
35909;SDS011;22004;49.120;-0.200;2022-09-16T17:18:54;4.40;;;0.90;;
35909;SDS011;22004;49.120;-0.200;2022-09-16T17:21:24;3.50;;;0.88;;
35909;SDS011;22004;49.120;-0.200;2022-09-16T17:23:51;2.95;;;0.63;;
35909;SDS011;22004;49.120;-0.200;2022-09-16T17:26:17;5.07;;;1.10;;
35909;SDS011;22004;49.120;-0.200;2022-09-16T17:28:44;2.22;;;0.80;;
35909;SDS011;22004;49.120;-0.200;2022-09-16T17:31:14;1.90;;;0.70;;
35909;SDS011;22004;49.120;-0.200;2022-09-16T17:33:41;5.00;;;1.10;;
35909;SDS011;22004;49.120;-0.200;2022-09-16T17:36:08;2.85;;;0.80;;
35909;SDS011;22004;49.120;-0.200;2022-09-16T17:38:34;4.15;;;0.90;;
35909;SDS011;22004;49.120;-0.200;2022-09-16T17:41:03;2.75;;;0.90;;
35909;SDS011;22004;49.120;-0.200;2022-09-16T17:43:30;3.03;;;0.82;;
35909;SDS011;22004;49.120;-0.200;2022-09-16T17:46:00;3.53;;;1.40;;
35909;SDS011;22004;49.120;-0.200;2022-09-16T17:48:27;3.05;;;0.80;;
35909;SDS011;22004;49.120;-0.200;2022-09-16T17:50:53;5.82;;;1.05;;
35909;SDS011;22004;49.120;-0.200;2022-09-16T17:53:19;3.40;;;0.80;;
35909;SDS011;22004;49.120;-0.200;2022-09-16T17:55:45;1.63;;;0.75;;
35909;SDS011;22004;49.120;-0.200;2022-09-16T17:58:11;5.07;;;1.08;;
35909;SDS011;22004;49.120;-0.200;2022-09-16T18:00:36;1.73;;;0.73;;
35909;SDS011;22004;49.120;-0.200;2022-09-16T18:03:02;3.55;;;0.77;;
35909;SDS011;22004;49.120;-0.200;2022-09-16T18:05:31;6.20;;;0.90;;
35909;SDS011;22004;49.120;-0.200;2022-09-16T18:07:57;2.45;;;1.15;;
35909;SDS011;22004;49.120;-0.200;2022-09-16T18:10:23;2.33;;;0.70;;
35909;SDS011;22004;49.120;-0.200;2022-09-16T18:12:48;2.33;;;0.68;;
35909;SDS011;22004;49.120;-0.200;2022-09-16T18:15:13;2.05;;;0.90;;
35909;SDS011;22004;49.120;-0.200;2022-09-16T18:17:39;4.00;;;1.08;;
35909;SDS011;22004;49.120;-0.200;2022-09-16T18:20:05;1.77;;;0.90;;
35909;SDS011;22004;49.120;-0.200;2022-09-16T18:22:30;1.33;;;0.70;;
35909;SDS011;22004;49.120;-0.200;2022-09-16T18:24:56;1.58;;;0.82;;
35909;SDS011;22004;49.120;-0.200;2022-09-16T18:27:21;2.40;;;0.95;;
35909;SDS011;22004;49.120;-0.200;2022-09-16T18:29:47;3.88;;;0.90;;
35909;SDS011;22004;49.120;-0.200;2022-09-16T18:32:12;2.33;;;0.60;;
35909;SDS011;22004;49.120;-0.200;2022-09-16T18:34:37;1.73;;;0.77;;